createdAt,value
2018-06-18T00:02:20.367Z,78.29
2018-06-18T00:04:48.870Z,78.55
2018-06-18T00:07:17.303Z,79.45
2018-06-18T00:09:45.748Z,78.87
2018-06-18T00:12:14.277Z,79.03
2018-06-18T00:14:42.800Z,79.54
2018-06-18T00:17:11.336Z,80.30
2018-06-18T00:19:40.486Z,80.68
2018-06-18T00:22:13.037Z,80.26
2018-06-18T00:24:41.522Z,80.20
2018-06-18T00:27:09.962Z,81.00
2018-06-18T00:29:38.483Z,81.25
2018-06-18T00:32:07.309Z,81.39
2018-06-18T00:34:35.901Z,81.98
2018-06-18T00:37:04.366Z,82.64
2018-06-18T00:39:32.850Z,82.52
2018-06-18T00:42:01.435Z,82.79
2018-06-18T00:44:29.913Z,83.19
2018-06-18T00:46:58.581Z,83.41
2018-06-18T00:49:27.534Z,84.27
2018-06-18T00:51:56.061Z,84.14
2018-06-18T00:54:24.522Z,84.82
2018-06-18T00:56:52.925Z,85.40
2018-06-18T00:59:21.512Z,85.75
2018-06-18T01:01:49.986Z,85.88
2018-06-18T01:04:18.370Z,86.45
2018-06-18T01:06:46.766Z,86.53
2018-06-18T01:09:15.230Z,87.07
2018-06-18T01:11:43.752Z,87.17
2018-06-18T01:14:12.408Z,87.30
2018-06-18T01:16:41.044Z,87.42
2018-06-18T01:19:09.511Z,87.36
2018-06-18T01:21:38.011Z,87.95
2018-06-18T01:24:15.190Z,87.84
2018-06-18T01:26:43.711Z,88.08
2018-06-18T01:29:12.113Z,87.39
2018-06-18T01:31:40.674Z,87.10
2018-06-18T01:34:18.262Z,87.16
2018-06-18T01:36:46.702Z,87.37
2018-06-18T01:39:15.216Z,87.50
2018-06-18T01:41:44.051Z,88.13
2018-06-18T01:44:13.157Z,88.21
2018-06-18T01:46:41.678Z,88.77
2018-06-18T01:49:10.126Z,89.80
2018-06-18T01:51:38.789Z,89.79
2018-06-18T01:54:07.252Z,90.42
2018-06-18T02:02:44.202Z,91.46
2018-06-18T02:05:12.562Z,91.45
2018-06-18T02:07:41.061Z,92.04
2018-06-18T02:10:10.226Z,92.76
2018-06-18T02:12:39.098Z,93.09
2018-06-18T02:15:07.499Z,93.70
2018-06-18T02:17:35.981Z,94.07
2018-06-18T02:20:04.829Z,94.24
2018-06-18T02:22:33.286Z,93.85
2018-06-18T02:25:01.772Z,93.54
2018-06-18T02:27:35.591Z,93.15
2018-06-18T02:31:09.127Z,93.38
2018-06-18T02:33:42.682Z,93.89
2018-06-18T02:36:16.302Z,93.63
2018-06-18T02:38:49.950Z,92.96
2018-06-18T02:41:18.430Z,92.72
2018-06-18T02:43:46.828Z,92.95
2018-06-18T02:46:15.193Z,93.43
2018-06-18T02:48:43.578Z,93.30
2018-06-18T02:51:11.961Z,93.65
2018-06-18T02:53:40.446Z,93.81
2018-06-18T02:56:08.835Z,94.26
2018-06-18T02:58:37.350Z,94.39
2018-06-18T03:01:05.855Z,94.83
2018-06-18T03:03:34.266Z,95.24
2018-06-18T03:06:03.042Z,95.57
2018-06-18T03:08:31.441Z,95.06
2018-06-18T03:11:00.034Z,95.56
2018-06-18T03:13:28.558Z,96.51
2018-06-18T03:15:56.986Z,96.63
2018-06-18T03:18:30.734Z,96.71
2018-06-18T03:21:04.522Z,96.77
2018-06-18T03:23:38.426Z,96.85
2018-06-18T03:27:14.722Z,97.16
2018-06-18T03:29:43.202Z,97.54
2018-06-18T03:32:16.806Z,97.84
2018-06-18T03:34:45.327Z,98.19
2018-06-18T03:37:16.089Z,98.75
2018-06-18T03:39:44.453Z,98.94
2018-06-18T03:42:12.931Z,100.00
2018-06-18T03:44:51.018Z,99.74
2018-06-18T03:47:23.347Z,99.57
2018-06-18T03:49:51.803Z,99.64
2018-06-18T03:52:20.662Z,99.60
2018-06-18T03:54:50.447Z,99.29
2018-06-18T03:57:19.502Z,99.30
2018-06-18T03:59:48.317Z,99.32
2018-06-18T04:02:42.255Z,99.08
2018-06-18T04:05:16.272Z,98.89
2018-06-18T04:07:49.965Z,98.62
2018-06-18T04:10:23.624Z,98.14
2018-06-18T04:12:52.047Z,97.22
2018-06-18T04:15:20.546Z,97.11
2018-06-18T04:17:49.122Z,96.63
2018-06-18T04:20:17.652Z,96.94
2018-06-18T04:22:46.124Z,96.78
2018-06-18T04:25:14.579Z,96.90
2018-06-18T04:27:43.049Z,96.69
2018-06-18T04:30:11.626Z,96.36
2018-06-18T04:32:40.104Z,96.14
2018-06-18T04:35:10.092Z,96.37
2018-06-18T04:37:38.558Z,96.39
2018-06-18T04:40:08.061Z,95.75
2018-06-18T04:42:41.798Z,95.89
2018-06-18T04:45:15.626Z,95.99
2018-06-18T04:47:49.124Z,95.56
2018-06-18T04:50:22.653Z,95.40
2018-06-18T04:52:51.106Z,94.35
2018-06-18T04:55:19.519Z,94.11
2018-06-18T04:57:48.054Z,93.70
2018-06-18T05:00:22.987Z,93.75
2018-06-18T05:02:51.369Z,93.03
2018-06-18T05:05:19.757Z,92.62
2018-06-18T05:07:51.691Z,92.51
2018-06-18T05:10:24.856Z,92.06
2018-06-18T05:12:53.823Z,91.58
2018-06-18T05:15:26.265Z,90.97
2018-06-18T05:17:54.798Z,90.42
2018-06-18T05:20:23.306Z,90.30
2018-06-18T05:22:51.718Z,89.66
2018-06-18T05:25:20.146Z,90.11
2018-06-18T05:27:48.574Z,89.97
2018-06-18T05:30:19.798Z,89.67
2018-06-18T05:32:48.230Z,88.79
2018-06-18T05:35:16.725Z,87.91
2018-06-18T05:38:23.809Z,87.05
2018-06-18T05:40:52.289Z,85.73
2018-06-18T05:43:20.778Z,85.75
2018-06-18T05:45:49.266Z,85.26
2018-06-18T05:48:17.811Z,86.80
2018-06-18T05:50:46.218Z,85.74
2018-06-18T05:53:14.699Z,85.07
2018-06-18T05:55:43.187Z,84.88
2018-06-18T05:58:11.778Z,84.99
2018-06-18T06:00:40.203Z,83.13
2018-06-18T06:03:08.843Z,83.84
2018-06-18T06:05:37.379Z,84.37
2018-06-18T06:08:05.903Z,83.91
2018-06-18T06:10:34.357Z,83.70
2018-06-18T06:13:02.869Z,83.82
2018-06-18T06:15:31.454Z,82.78
2018-06-18T06:18:00.150Z,81.14
2018-06-18T06:20:28.584Z,80.20
2018-06-18T06:22:57.110Z,80.28
2018-06-18T06:25:25.487Z,79.25
2018-06-18T06:27:54.038Z,79.16
2018-06-18T06:30:22.622Z,78.97
2018-06-18T06:32:51.786Z,78.81
2018-06-18T06:35:31.571Z,78.23
2018-06-18T06:38:00.091Z,77.73
2018-06-18T06:40:28.528Z,78.54
2018-06-18T06:42:57.342Z,79.71
2018-06-18T06:45:25.943Z,79.80
2018-06-18T06:47:54.474Z,79.08
2018-06-18T06:50:22.922Z,78.81
2018-06-18T06:52:51.406Z,78.34
2018-06-18T06:55:19.852Z,77.88
2018-06-18T06:57:48.215Z,78.05
2018-06-18T07:00:16.958Z,77.37
2018-06-18T07:02:45.512Z,77.39
2018-06-18T07:05:13.978Z,76.92
2018-06-18T07:07:42.669Z,75.93
2018-06-18T07:10:11.254Z,75.29
2018-06-18T07:12:42.016Z,74.78
2018-06-18T07:15:10.555Z,75.72
2018-06-18T07:17:40.750Z,73.41
2018-06-18T07:20:09.325Z,73.16
2018-06-18T07:22:37.846Z,73.25
2018-06-18T07:25:06.474Z,72.35
2018-06-18T07:27:35.086Z,72.61
2018-06-18T07:30:03.631Z,72.71
2018-06-18T07:32:32.098Z,72.36
2018-06-18T07:35:00.762Z,71.29
2018-06-18T07:37:30.037Z,69.46
2018-06-18T07:39:59.657Z,70.80
2018-06-18T07:42:28.503Z,69.63
2018-06-18T07:44:57.006Z,69.91
2018-06-18T07:47:25.456Z,67.25
2018-06-18T07:49:53.950Z,68.38
2018-06-18T07:52:22.575Z,67.99
2018-06-18T07:54:51.313Z,66.92
2018-06-18T07:57:20.050Z,66.06
2018-06-18T07:59:48.938Z,65.06
2018-06-18T08:02:17.586Z,65.17
2018-06-18T08:04:50.823Z,63.01
2018-06-18T08:09:52.915Z,60.29
2018-06-18T08:12:21.422Z,59.88
2018-06-18T08:14:49.909Z,59.85
2018-06-18T08:17:18.365Z,59.68
2018-06-18T08:19:46.915Z,57.83
2018-06-18T08:22:15.486Z,54.59
2018-06-18T08:24:43.950Z,54.43
2018-06-18T08:27:12.417Z,51.81
2018-06-18T08:29:40.895Z,50.92
2018-06-18T08:32:09.561Z,52.30
2018-06-18T08:34:38.153Z,49.23
2018-06-18T08:37:06.692Z,47.74
2018-06-18T08:39:35.146Z,45.39
2018-06-18T08:42:03.588Z,45.54
2018-06-18T08:44:32.153Z,42.79
2018-06-18T08:47:00.590Z,43.26
2018-06-18T08:49:29.046Z,47.12
2018-06-18T08:52:02.784Z,46.70
2018-06-18T08:54:36.735Z,45.50
2018-06-18T08:57:10.535Z,44.52
2018-06-18T08:59:44.070Z,44.76
2018-06-18T09:02:12.574Z,45.55
2018-06-18T09:04:49.292Z,46.92
2018-06-18T09:07:21.851Z,46.88
2018-06-18T09:09:50.318Z,43.97
2018-06-18T09:12:18.923Z,44.08
2018-06-18T09:14:47.346Z,44.51
2018-06-18T09:17:15.857Z,44.99
2018-06-18T09:19:44.391Z,42.66
2018-06-18T09:22:12.842Z,41.81
2018-06-18T09:24:41.414Z,46.67
2018-06-18T09:27:13.249Z,44.53
2018-06-18T09:29:46.845Z,43.20
2018-06-18T09:32:15.458Z,42.76
2018-06-18T09:34:44.411Z,42.90
2018-06-18T09:37:12.930Z,42.23
2018-06-18T09:39:41.475Z,40.25
2018-06-18T09:42:10.082Z,39.40
2018-06-18T09:44:38.527Z,40.73
2018-06-18T09:47:07.001Z,39.64
2018-06-18T09:49:40.763Z,41.54
2018-06-18T09:52:14.461Z,43.06
2018-06-18T09:54:48.226Z,44.87
2018-06-18T09:57:26.248Z,45.13
2018-06-18T09:59:59.615Z,41.56
2018-06-18T10:02:28.696Z,39.51
2018-06-18T10:04:58.619Z,36.80
2018-06-18T10:07:27.154Z,36.41
2018-06-18T10:09:56.286Z,31.27
2018-06-18T10:12:24.923Z,30.73
2018-06-18T10:14:53.302Z,30.26
2018-06-18T10:17:21.951Z,28.97
2018-06-18T10:19:51.402Z,29.54
2018-06-18T10:22:19.882Z,29.72
2018-06-18T10:24:48.347Z,29.23
2018-06-18T10:27:16.825Z,29.49
2018-06-18T10:29:45.490Z,30.90
2018-06-18T10:32:19.395Z,32.01
2018-06-18T10:34:53.033Z,34.72
2018-06-18T10:37:26.898Z,35.88
2018-06-18T10:40:00.781Z,33.37
2018-06-18T10:42:34.518Z,33.33
2018-06-18T10:45:03.002Z,31.59
2018-06-18T10:47:31.483Z,33.10
2018-06-18T10:50:00.054Z,30.73
2018-06-18T10:52:28.610Z,30.90
2018-06-18T10:54:57.175Z,28.55
2018-06-18T10:57:25.533Z,27.94
2018-06-18T10:59:54.015Z,28.39
2018-06-18T11:02:22.462Z,26.38
2018-06-18T11:04:56.281Z,29.90
2018-06-18T11:07:24.645Z,28.63
2018-06-18T11:09:53.108Z,27.10
2018-06-18T11:12:21.650Z,26.27
2018-06-18T11:14:50.119Z,26.55
2018-06-18T11:17:24.414Z,27.14
2018-06-18T11:19:57.850Z,23.22
2018-06-18T11:22:31.569Z,22.31
2018-06-18T11:25:05.583Z,23.49
2018-06-18T11:27:34.001Z,24.84
2018-06-18T11:30:02.502Z,23.30
2018-06-18T11:32:30.929Z,20.52
2018-06-18T11:34:59.407Z,19.78
2018-06-18T11:37:27.919Z,21.52
2018-06-18T11:39:56.335Z,20.17
2018-06-18T11:42:24.833Z,21.42
2018-06-18T11:44:53.308Z,20.60
2018-06-18T11:47:21.777Z,19.87
2018-06-18T11:49:50.565Z,18.16
2018-06-18T11:52:18.927Z,18.23
2018-06-18T11:54:51.388Z,17.07
2018-06-18T11:57:19.779Z,16.76
2018-06-18T11:59:53.674Z,17.27
2018-06-18T12:02:27.446Z,16.63
2018-06-18T12:05:01.234Z,16.11
2018-06-18T12:07:34.955Z,18.05
2018-06-18T12:10:03.451Z,18.88
2018-06-18T12:12:31.989Z,18.99
2018-06-18T12:15:00.563Z,17.03
2018-06-18T12:17:28.978Z,15.24
2018-06-18T12:19:57.426Z,16.50
2018-06-18T12:22:25.810Z,15.14
2018-06-18T12:24:54.480Z,15.37
2018-06-18T12:27:26.249Z,17.63
2018-06-18T12:29:54.670Z,16.19
2018-06-18T12:32:23.165Z,16.44
2018-06-18T12:34:51.598Z,18.87
2018-06-18T12:37:20.064Z,20.94
2018-06-18T12:39:49.228Z,20.46
2018-06-18T12:42:17.654Z,17.34
2018-06-18T12:44:51.630Z,17.08
2018-06-18T12:47:25.191Z,15.29
2018-06-18T12:49:58.967Z,15.27
2018-06-18T12:52:32.691Z,15.30
2018-06-18T12:55:06.522Z,15.37
2018-06-18T12:57:34.954Z,13.97
2018-06-18T13:00:03.503Z,16.33
2018-06-18T13:02:35.965Z,15.76
2018-06-18T13:05:04.410Z,13.79
2018-06-18T13:07:32.902Z,16.53
2018-06-18T13:10:01.439Z,15.56
2018-06-18T13:12:29.818Z,14.60
2018-06-18T13:14:58.311Z,18.00
2018-06-18T13:17:26.901Z,16.18
2018-06-18T13:19:55.355Z,15.23
2018-06-18T13:22:23.920Z,17.75
2018-06-18T13:24:52.355Z,18.96
2018-06-18T13:27:25.181Z,16.70
2018-06-18T13:29:53.916Z,17.34
2018-06-18T13:32:22.464Z,14.75
2018-06-18T13:34:50.981Z,15.42
2018-06-18T13:37:24.700Z,15.87
2018-06-18T13:39:58.517Z,12.26
2018-06-18T13:42:32.280Z,12.30
2018-06-18T13:45:06.187Z,15.65
2018-06-18T13:47:39.837Z,19.05
2018-06-18T13:50:08.352Z,22.17
2018-06-18T13:52:36.902Z,21.37
2018-06-18T13:55:05.838Z,21.22
2018-06-18T13:57:34.305Z,19.38
2018-06-18T14:00:02.761Z,16.64
2018-06-18T14:02:31.296Z,14.98
2018-06-18T14:04:59.899Z,15.69
2018-06-18T14:07:28.383Z,12.34
2018-06-18T14:09:56.947Z,14.34
2018-06-18T14:12:25.443Z,14.39
2018-06-18T14:14:54.170Z,14.35
2018-06-18T14:17:22.659Z,14.76
2018-06-18T14:19:56.231Z,14.27
2018-06-18T14:22:24.929Z,13.09
2018-06-18T14:24:53.671Z,13.57
2018-06-18T14:27:22.107Z,14.66
2018-06-18T14:29:55.976Z,13.33
2018-06-18T14:32:29.751Z,12.97
2018-06-18T14:35:03.300Z,12.26
2018-06-18T14:37:37.318Z,10.76
2018-06-18T14:40:10.026Z,11.75
2018-06-18T14:42:38.505Z,12.79
2018-06-18T14:45:06.902Z,11.41
2018-06-18T14:47:36.864Z,11.10
2018-06-18T14:50:05.586Z,11.30
2018-06-18T14:52:34.156Z,11.04
2018-06-18T14:55:03.111Z,11.06
2018-06-18T14:57:31.581Z,15.39
2018-06-18T15:00:05.898Z,17.04
2018-06-18T15:02:34.399Z,16.58
2018-06-18T15:05:03.160Z,18.14
2018-06-18T15:07:31.779Z,15.17
2018-06-18T15:10:00.275Z,15.18
2018-06-18T15:12:31.842Z,15.41
2018-06-18T15:15:05.917Z,13.06
2018-06-18T15:17:34.379Z,13.07
2018-06-18T15:20:02.832Z,13.86
2018-06-18T15:22:32.447Z,13.79
2018-06-18T15:25:04.368Z,12.42
2018-06-18T15:27:32.729Z,13.06
2018-06-18T15:30:01.141Z,11.97
2018-06-18T15:32:29.952Z,17.07
2018-06-18T15:35:02.251Z,21.40
2018-06-18T15:37:30.726Z,25.20
2018-06-18T15:39:59.228Z,26.00
2018-06-18T15:42:27.626Z,26.69
2018-06-18T15:44:56.059Z,27.71
2018-06-18T15:47:24.474Z,29.63
2018-06-18T15:49:52.899Z,28.44
2018-06-18T15:52:21.495Z,25.34
2018-06-18T15:54:50.274Z,24.21
2018-06-18T15:57:18.841Z,24.51
2018-06-18T15:59:47.288Z,26.22
2018-06-18T16:02:15.717Z,27.59
2018-06-18T16:04:44.238Z,28.50
2018-06-18T16:07:12.697Z,27.52
2018-06-18T16:09:41.182Z,29.14
2018-06-18T16:12:09.707Z,28.95
2018-06-18T16:14:38.421Z,25.34
2018-06-18T16:17:07.425Z,24.19
2018-06-18T16:19:35.874Z,22.58
2018-06-18T16:22:04.387Z,20.37
2018-06-18T16:24:32.990Z,18.96
2018-06-18T16:27:01.505Z,16.36
2018-06-18T16:29:30.003Z,13.94
2018-06-18T16:31:58.610Z,12.85
2018-06-18T16:34:27.267Z,13.43
2018-06-18T16:36:55.790Z,18.48
2018-06-18T16:39:24.278Z,21.17
2018-06-18T16:41:52.803Z,25.72
2018-06-18T16:44:21.287Z,27.17
2018-06-18T16:46:49.746Z,29.29
2018-06-18T16:49:18.262Z,30.25
2018-06-18T16:51:46.736Z,31.18
2018-06-18T16:54:15.238Z,30.80
2018-06-18T16:56:43.659Z,25.69
2018-06-18T16:59:12.131Z,27.24
2018-06-18T17:01:40.725Z,29.94
2018-06-18T17:04:09.230Z,31.50
2018-06-18T17:06:41.416Z,33.00
2018-06-18T17:09:11.177Z,33.44
2018-06-18T17:11:39.714Z,34.33
2018-06-18T17:14:08.727Z,33.27
2018-06-18T17:16:37.371Z,35.31
2018-06-18T17:19:06.131Z,35.83
2018-06-18T17:21:34.657Z,36.52
2018-06-18T17:24:03.154Z,36.88
2018-06-18T17:26:31.586Z,36.43
2018-06-18T17:29:00.001Z,36.73
2018-06-18T17:31:28.476Z,37.26
2018-06-18T17:33:56.962Z,36.29
2018-06-18T17:36:25.502Z,32.48
2018-06-18T17:38:53.950Z,29.65
2018-06-18T17:41:22.395Z,26.18
2018-06-18T17:43:50.830Z,24.77
2018-06-18T17:46:19.328Z,26.73
2018-06-18T17:48:47.858Z,27.42
2018-06-18T17:51:16.344Z,26.99
2018-06-18T17:53:44.761Z,27.31
2018-06-18T17:56:13.297Z,27.35
2018-06-18T17:58:41.810Z,25.06
2018-06-18T18:01:10.264Z,24.66
2018-06-18T18:03:38.715Z,25.88
2018-06-18T18:06:07.183Z,26.94
2018-06-18T18:08:35.666Z,28.76
2018-06-18T18:11:04.139Z,30.76
2018-06-18T18:13:32.644Z,33.35
2018-06-18T18:16:01.009Z,34.90
2018-06-18T18:18:29.482Z,37.13
2018-06-18T18:20:58.065Z,38.24
2018-06-18T18:23:26.689Z,39.58
2018-06-18T18:25:55.498Z,41.35
2018-06-18T18:28:24.020Z,41.83
2018-06-18T18:30:52.676Z,42.94
2018-06-18T18:33:21.097Z,43.20
2018-06-18T18:35:49.650Z,44.24
2018-06-18T18:38:18.087Z,45.09
2018-06-18T18:40:46.536Z,46.11
2018-06-18T18:43:15.090Z,46.46
2018-06-18T18:45:43.498Z,47.24
2018-06-18T18:48:12.058Z,47.70
2018-06-18T18:50:40.473Z,48.53
2018-06-18T18:53:09.040Z,49.07
2018-06-18T18:55:50.283Z,49.58
2018-06-18T18:58:58.942Z,49.78
2018-06-18T19:01:28.248Z,50.39
2018-06-18T19:03:59.617Z,50.89
2018-06-18T19:06:28.198Z,50.94
2018-06-18T19:08:56.585Z,51.48
2018-06-18T19:11:25.144Z,52.16
2018-06-18T19:13:53.509Z,52.38
2018-06-18T19:16:22.011Z,53.04
2018-06-18T19:18:55.241Z,53.36
2018-06-18T19:21:23.819Z,53.39
2018-06-18T19:23:52.314Z,54.50
2018-06-18T19:26:20.809Z,54.24
2018-06-18T19:28:49.301Z,54.89
2018-06-18T19:31:20.923Z,55.31
2018-06-18T19:34:14.606Z,55.66
2018-06-18T19:36:52.320Z,56.41
2018-06-18T19:39:21.946Z,57.03
2018-06-18T19:41:50.452Z,57.31
2018-06-18T19:44:19.079Z,57.51
2018-06-18T19:47:24.075Z,57.69
2018-06-18T19:49:52.698Z,58.91
2018-06-18T19:52:21.169Z,59.23
2018-06-18T19:54:55.263Z,59.77
2018-06-18T19:57:23.782Z,59.71
2018-06-18T19:59:52.221Z,60.03
2018-06-18T20:02:20.701Z,60.18
2018-06-18T20:04:49.394Z,60.79
2018-06-18T20:07:18.707Z,60.85
2018-06-18T20:09:47.339Z,61.11
2018-06-18T20:12:15.851Z,61.83
2018-06-18T20:14:44.419Z,60.90
2018-06-18T20:17:12.939Z,61.09
2018-06-18T20:19:41.459Z,60.91
2018-06-18T20:22:09.959Z,61.00
2018-06-18T20:24:40.171Z,60.93
2018-06-18T20:27:08.745Z,60.99
2018-06-18T20:29:37.422Z,60.64
2018-06-18T20:32:06.099Z,61.21
2018-06-18T20:34:34.489Z,60.93
2018-06-18T20:37:02.938Z,61.57
2018-06-18T20:39:31.382Z,61.58
2018-06-18T20:42:00.062Z,61.97
2018-06-18T20:44:28.846Z,61.07
2018-06-18T20:46:57.446Z,61.73
2018-06-18T20:49:25.983Z,61.87
2018-06-18T20:51:54.409Z,62.46
2018-06-18T20:54:22.928Z,63.29
2018-06-18T20:56:51.448Z,63.60
2018-06-18T20:59:19.870Z,64.01
2018-06-18T21:01:48.514Z,63.76
2018-06-18T21:04:17.181Z,63.66
2018-06-18T21:06:45.714Z,64.89
2018-06-18T21:09:14.192Z,64.78
2018-06-18T21:11:42.751Z,64.97
2018-06-18T21:14:11.858Z,65.77
2018-06-18T21:16:43.054Z,66.32
2018-06-18T21:19:11.591Z,66.41
2018-06-18T21:21:40.102Z,66.75
2018-06-18T21:24:08.598Z,67.36
2018-06-18T21:26:37.250Z,68.08
2018-06-18T21:29:05.705Z,68.26
2018-06-18T21:31:34.114Z,68.73
2018-06-18T21:34:02.666Z,68.74
2018-06-18T21:36:31.091Z,69.29
2018-06-18T21:38:59.698Z,68.85
2018-06-18T21:41:28.238Z,69.66
2018-06-18T21:43:57.739Z,70.01
2018-06-18T21:46:26.290Z,70.17
2018-06-18T21:48:54.699Z,70.21
2018-06-18T21:51:23.167Z,71.19
2018-06-18T21:53:51.853Z,71.29
2018-06-18T21:56:20.264Z,71.43
2018-06-18T21:58:53.127Z,71.87
2018-06-18T22:01:34.464Z,72.68
2018-06-18T22:04:03.263Z,72.63
2018-06-18T22:06:31.864Z,72.58
2018-06-18T22:09:00.292Z,72.76
2018-06-18T22:11:28.659Z,72.89
2018-06-18T22:13:57.242Z,72.51
2018-06-18T22:16:25.791Z,72.94
2018-06-18T22:18:54.260Z,73.13
2018-06-18T22:21:22.614Z,72.95
2018-06-18T22:23:51.070Z,72.82
2018-06-18T22:26:22.210Z,73.49
2018-06-18T22:28:50.686Z,73.75
2018-06-18T22:31:19.171Z,73.97
2018-06-18T22:33:47.694Z,74.20
2018-06-18T22:36:16.094Z,74.40
2018-06-18T22:38:44.517Z,74.92
2018-06-18T22:41:12.998Z,75.34
2018-06-18T22:43:41.674Z,75.64
2018-06-18T22:46:10.328Z,75.88
2018-06-18T22:48:38.780Z,77.09
2018-06-18T22:51:07.228Z,77.15
2018-06-18T22:53:35.658Z,77.66
2018-06-18T22:56:04.272Z,78.10
2018-06-18T22:58:32.807Z,78.37
2018-06-18T23:01:01.618Z,78.47
2018-06-18T23:03:30.004Z,77.62
2018-06-18T23:05:58.473Z,77.51
2018-06-18T23:08:26.978Z,77.76
2018-06-18T23:10:55.456Z,77.78
2018-06-18T23:13:30.103Z,78.10
2018-06-18T23:15:58.756Z,77.70
2018-06-18T23:18:27.174Z,78.02
2018-06-18T23:20:55.701Z,77.89
2018-06-18T23:23:24.317Z,78.90
2018-06-18T23:25:52.910Z,78.84
2018-06-18T23:28:24.634Z,79.10
2018-06-18T23:30:53.087Z,79.18
2018-06-18T23:33:21.567Z,79.81
2018-06-18T23:35:50.135Z,80.07
2018-06-18T23:38:18.582Z,80.55
2018-06-18T23:40:47.007Z,81.31
2018-06-18T23:43:15.446Z,81.56
2018-06-18T23:45:43.834Z,81.74
2018-06-18T23:48:12.305Z,82.12
2018-06-18T23:50:41.102Z,82.92
2018-06-18T23:53:09.514Z,82.51
2018-06-18T23:55:38.002Z,82.59
2018-06-18T23:58:06.485Z,82.47
